createdAt,value
2018-09-20T00:01:39.257Z,18.90
2018-09-20T00:04:07.785Z,18.90
2018-09-20T00:06:36.249Z,18.90
2018-09-20T00:09:06.727Z,18.90
2018-09-20T00:11:35.373Z,18.80
2018-09-20T00:14:03.945Z,18.80
2018-09-20T00:16:32.482Z,18.80
2018-09-20T00:19:01.077Z,18.80
2018-09-20T00:21:30.825Z,18.70
2018-09-20T00:23:59.336Z,18.70
2018-09-20T00:26:27.885Z,18.70
2018-09-20T00:28:56.369Z,18.70
2018-09-20T00:31:24.869Z,18.70
2018-09-20T00:33:53.385Z,18.70
2018-09-20T00:36:21.917Z,18.70
2018-09-20T00:38:50.465Z,18.70
2018-09-20T00:41:19.036Z,18.60
2018-09-20T00:43:47.889Z,18.60
2018-09-20T00:46:16.378Z,18.60
2018-09-20T00:48:44.941Z,18.50
2018-09-20T00:51:13.433Z,18.50
2018-09-20T00:53:41.937Z,18.40
2018-09-20T00:56:10.391Z,18.40
2018-09-20T00:58:39.950Z,18.30
2018-09-20T01:01:08.517Z,18.30
2018-09-20T01:03:37.011Z,18.30
2018-09-20T01:06:05.553Z,18.30
2018-09-20T01:08:34.244Z,18.30
2018-09-20T01:11:02.811Z,18.30
2018-09-20T01:13:31.369Z,18.30
2018-09-20T01:15:59.905Z,18.30
2018-09-20T01:18:28.401Z,18.20
2018-09-20T01:20:56.849Z,18.20
2018-09-20T01:23:25.309Z,18.20
2018-09-20T01:25:53.844Z,18.10
2018-09-20T01:28:22.292Z,18.10
2018-09-20T01:30:50.805Z,18.10
2018-09-20T01:33:19.349Z,18.10
2018-09-20T01:35:47.821Z,18.00
2018-09-20T01:38:16.350Z,18.00
2018-09-20T01:40:44.913Z,18.10
2018-09-20T01:43:13.504Z,18.10
2018-09-20T01:45:42.014Z,18.10
2018-09-20T01:48:10.587Z,18.10
2018-09-20T01:50:39.129Z,18.10
2018-09-20T01:53:07.750Z,18.00
2018-09-20T01:55:36.242Z,18.00
2018-09-20T01:58:04.801Z,18.00
2018-09-20T02:00:33.285Z,18.00
2018-09-20T02:03:01.742Z,18.10
2018-09-20T02:05:30.261Z,18.00
2018-09-20T02:07:58.741Z,18.00
2018-09-20T02:10:27.294Z,18.00
2018-09-20T02:12:55.813Z,18.00
2018-09-20T02:15:25.541Z,17.90
2018-09-20T02:17:54.090Z,17.90
2018-09-20T02:20:22.613Z,17.90
2018-09-20T02:22:51.158Z,17.80
2018-09-20T02:25:20.674Z,17.80
2018-09-20T02:27:49.461Z,17.80
2018-09-20T02:30:18.017Z,17.80
2018-09-20T02:32:46.907Z,17.70
2018-09-20T02:35:15.485Z,17.70
2018-09-20T02:37:44.024Z,17.70
2018-09-20T02:40:12.541Z,17.70
2018-09-20T02:42:41.049Z,17.70
2018-09-20T02:45:09.570Z,17.70
2018-09-20T02:47:38.125Z,17.70
2018-09-20T02:50:06.621Z,17.70
2018-09-20T02:52:35.185Z,17.70
2018-09-20T02:55:03.732Z,17.60
2018-09-20T02:57:32.209Z,17.60
2018-09-20T03:00:00.733Z,17.60
2018-09-20T03:02:29.184Z,17.60
2018-09-20T03:04:57.958Z,17.50
2018-09-20T03:07:26.487Z,17.50
2018-09-20T03:09:54.969Z,17.50
2018-09-20T03:12:23.425Z,17.50
2018-09-20T03:14:52.073Z,17.50
2018-09-20T03:17:20.574Z,17.50
2018-09-20T03:19:49.133Z,17.50
2018-09-20T03:22:17.657Z,17.40
2018-09-20T03:24:46.176Z,17.40
2018-09-20T03:27:14.699Z,17.40
2018-09-20T03:29:43.220Z,17.40
2018-09-20T03:32:11.716Z,17.40
2018-09-20T03:34:40.265Z,17.40
2018-09-20T03:37:09.827Z,17.30
2018-09-20T03:39:38.348Z,17.30
2018-09-20T03:42:06.925Z,17.30
2018-09-20T03:44:35.415Z,17.30
2018-09-20T03:47:03.945Z,17.20
2018-09-20T03:49:32.514Z,17.20
2018-09-20T03:52:00.990Z,17.20
2018-09-20T03:54:29.481Z,17.20
2018-09-20T03:56:57.970Z,17.10
2018-09-20T03:59:26.566Z,17.10
2018-09-20T04:01:55.078Z,17.10
2018-09-20T04:04:23.589Z,17.10
2018-09-20T04:06:52.051Z,17.10
2018-09-20T04:09:20.576Z,17.00
2018-09-20T04:11:49.009Z,17.00
2018-09-20T04:14:17.537Z,17.10
2018-09-20T04:16:45.997Z,17.10
2018-09-20T04:19:14.602Z,17.10
2018-09-20T04:21:43.085Z,17.10
2018-09-20T04:24:11.563Z,17.10
2018-09-20T04:26:40.041Z,17.10
2018-09-20T04:29:08.535Z,17.20
2018-09-20T04:31:37.153Z,17.20
2018-09-20T04:34:05.642Z,17.20
2018-09-20T04:36:34.237Z,17.20
2018-09-20T04:39:02.809Z,17.20
2018-09-20T04:41:31.362Z,17.20
2018-09-20T04:43:59.898Z,17.20
2018-09-20T04:46:28.417Z,17.20
2018-09-20T04:48:57.200Z,17.20
2018-09-20T04:51:25.759Z,17.20
2018-09-20T04:53:54.234Z,17.20
2018-09-20T04:56:22.741Z,17.20
2018-09-20T04:58:51.197Z,17.10
2018-09-20T05:01:19.710Z,17.10
2018-09-20T05:03:48.443Z,17.10
2018-09-20T05:06:17.017Z,17.10
2018-09-20T05:08:46.533Z,17.10
2018-09-20T05:11:15.069Z,17.10
2018-09-20T05:13:43.608Z,17.10
2018-09-20T05:16:12.311Z,17.10
2018-09-20T05:18:40.773Z,17.10
2018-09-20T05:21:09.321Z,17.10
2018-09-20T05:23:37.889Z,17.10
2018-09-20T05:26:06.469Z,17.20
2018-09-20T05:28:35.014Z,17.20
2018-09-20T05:31:03.542Z,17.20
2018-09-20T05:33:32.125Z,17.20
2018-09-20T05:36:01.021Z,17.30
2018-09-20T05:38:29.606Z,17.30
2018-09-20T05:40:58.129Z,17.30
2018-09-20T05:43:26.664Z,17.40
2018-09-20T05:45:56.257Z,17.40
2018-09-20T05:48:24.841Z,17.50
2018-09-20T05:50:53.360Z,17.60
2018-09-20T05:53:21.973Z,17.60
2018-09-20T05:55:50.442Z,17.70
2018-09-20T05:58:18.977Z,17.70
2018-09-20T06:00:47.466Z,17.70
2018-09-20T06:03:16.046Z,17.70
2018-09-20T06:05:44.678Z,17.80
2018-09-20T06:08:13.203Z,17.80
2018-09-20T06:10:41.684Z,17.80
2018-09-20T06:13:10.232Z,17.90
2018-09-20T06:15:38.881Z,17.90
2018-09-20T06:18:07.446Z,18.00
2018-09-20T06:20:35.993Z,18.10
2018-09-20T06:23:04.577Z,18.10
2018-09-20T06:25:33.083Z,18.10
2018-09-20T06:28:01.693Z,18.20
2018-09-20T06:30:30.265Z,18.30
2018-09-20T06:32:58.871Z,18.30
2018-09-20T06:35:27.453Z,18.40
2018-09-20T06:37:56.053Z,18.40
2018-09-20T06:40:24.601Z,18.50
2018-09-20T06:42:53.130Z,18.60
2018-09-20T06:45:21.678Z,18.60
2018-09-20T06:47:50.206Z,18.80
2018-09-20T06:50:18.765Z,18.90
2018-09-20T06:52:47.315Z,19.00
2018-09-20T06:55:16.679Z,19.10
2018-09-20T06:57:45.176Z,19.20
2018-09-20T07:00:13.725Z,19.30
2018-09-20T07:02:42.254Z,19.40
2018-09-20T07:05:10.760Z,19.50
2018-09-20T07:07:39.290Z,19.60
2018-09-20T07:10:12.577Z,19.80
2018-09-20T07:12:41.334Z,19.80
2018-09-20T07:15:10.810Z,19.90
2018-09-20T07:17:40.454Z,19.90
2018-09-20T07:20:09.034Z,20.00
2018-09-20T07:22:37.590Z,20.10
2018-09-20T07:25:06.145Z,20.10
2018-09-20T07:27:34.957Z,20.20
2018-09-20T07:30:03.666Z,20.30
2018-09-20T07:32:32.197Z,20.30
2018-09-20T07:35:00.714Z,20.40
2018-09-20T07:37:29.246Z,20.50
2018-09-20T07:39:57.773Z,20.50
2018-09-20T07:42:26.362Z,20.60
2018-09-20T07:44:54.817Z,20.70
2018-09-20T07:47:23.343Z,20.80
2018-09-20T07:49:51.913Z,20.80
2018-09-20T07:52:20.557Z,20.90
2018-09-20T07:54:49.178Z,21.00
2018-09-20T07:57:17.621Z,21.10
2018-09-20T07:59:46.140Z,21.10
2018-09-20T08:02:14.597Z,21.20
2018-09-20T08:04:43.122Z,21.30
2018-09-20T08:07:11.674Z,21.30
2018-09-20T08:09:40.159Z,21.40
2018-09-20T08:12:08.697Z,21.40
2018-09-20T08:14:37.197Z,21.50
2018-09-20T08:17:05.719Z,21.60
2018-09-20T08:19:35.184Z,21.60
2018-09-20T08:22:03.744Z,21.70
2018-09-20T08:24:32.256Z,21.80
2018-09-20T08:27:00.729Z,21.90
2018-09-20T08:29:29.238Z,22.10
2018-09-20T08:31:57.702Z,22.20
2018-09-20T08:37:40.337Z,22.20
2018-09-20T08:40:09.759Z,22.50
2018-09-20T08:42:39.257Z,22.50
2018-09-20T08:45:08.067Z,22.60
2018-09-20T08:47:36.618Z,22.60
2018-09-20T08:50:05.721Z,22.70
2018-09-20T08:52:34.202Z,22.70
2018-09-20T08:55:02.714Z,22.80
2018-09-20T08:58:02.269Z,22.80
2018-09-20T09:00:30.781Z,22.80
2018-09-20T09:02:59.365Z,22.80
2018-09-20T09:05:28.024Z,22.90
2018-09-20T09:07:56.570Z,23.00
2018-09-20T09:10:26.053Z,23.00
2018-09-20T09:12:55.567Z,23.10
2018-09-20T09:15:25.745Z,23.20
2018-09-20T09:17:54.374Z,23.30
2018-09-20T09:20:23.068Z,23.30
2018-09-20T09:24:20.873Z,23.40
2018-09-20T09:26:49.369Z,23.50
2018-09-20T09:29:17.886Z,23.60
2018-09-20T09:31:46.445Z,23.70
2018-09-20T09:34:15.102Z,23.80
2018-09-20T09:36:43.606Z,23.80
2018-09-20T09:39:13.110Z,23.90
2018-09-20T09:41:42.222Z,23.90
2018-09-20T09:44:10.720Z,24.00
2018-09-20T09:46:39.298Z,24.10
2018-09-20T09:49:07.764Z,24.20
2018-09-20T09:51:37.254Z,24.20
2018-09-20T09:54:05.949Z,24.20
2018-09-20T09:56:34.413Z,24.30
2018-09-20T09:59:02.934Z,24.40
2018-09-20T10:01:31.469Z,24.40
2018-09-20T10:04:00.047Z,24.50
2018-09-20T10:06:28.449Z,24.60
2018-09-20T10:08:56.969Z,24.70
2018-09-20T10:11:25.421Z,24.80
2018-09-20T10:13:54.000Z,24.90
2018-09-20T10:16:22.465Z,25.00
2018-09-20T10:18:51.001Z,25.10
2018-09-20T10:21:19.585Z,25.20
2018-09-20T10:23:48.176Z,25.20
2018-09-20T10:26:16.705Z,25.30
2018-09-20T10:28:46.242Z,25.40
2018-09-20T10:31:14.729Z,25.50
2018-09-20T10:33:43.234Z,25.60
2018-09-20T10:36:12.730Z,25.80
2018-09-20T10:38:42.233Z,25.90
2018-09-20T10:41:10.770Z,26.00
2018-09-20T10:43:39.494Z,26.20
2018-09-20T10:46:08.109Z,26.30
2018-09-20T10:48:36.666Z,26.40
2018-09-20T10:51:05.294Z,26.50
2018-09-20T10:53:33.793Z,26.60
2018-09-20T10:56:02.309Z,26.70
2018-09-20T10:58:30.749Z,26.90
2018-09-20T11:00:59.265Z,27.00
2018-09-20T11:03:28.816Z,27.10
2018-09-20T11:05:57.253Z,27.30
2018-09-20T11:08:25.702Z,27.40
2018-09-20T11:10:54.354Z,27.50
2018-09-20T11:13:22.872Z,27.60
2018-09-20T11:15:52.396Z,27.70
2018-09-20T11:18:21.917Z,27.80
2018-09-20T11:20:50.373Z,27.90
2018-09-20T11:23:18.878Z,28.00
2018-09-20T11:25:47.358Z,28.10
2018-09-20T11:28:15.846Z,28.20
2018-09-20T11:30:45.308Z,28.30
2018-09-20T11:33:13.840Z,28.50
2018-09-20T11:35:42.367Z,28.60
2018-09-20T11:38:10.932Z,28.70
2018-09-20T11:40:39.437Z,28.80
2018-09-20T11:43:08.945Z,28.90
2018-09-20T11:45:37.462Z,29.10
2018-09-20T11:48:05.937Z,29.10
2018-09-20T11:50:35.422Z,29.30
2018-09-20T11:53:03.961Z,29.50
2018-09-20T11:55:32.490Z,29.60
2018-09-20T11:58:00.966Z,29.70
2018-09-20T12:00:29.479Z,29.80
2018-09-20T12:02:57.982Z,29.90
2018-09-20T12:05:26.501Z,30.10
2018-09-20T12:07:55.020Z,30.30
2018-09-20T12:10:23.513Z,30.40
2018-09-20T12:12:52.436Z,30.40
2018-09-20T12:15:20.942Z,30.50
2018-09-20T12:17:49.463Z,30.50
2018-09-20T12:20:17.922Z,30.60
2018-09-20T12:22:46.526Z,30.60
2018-09-20T12:25:14.971Z,30.70
2018-09-20T12:27:43.491Z,30.80
2018-09-20T12:30:11.970Z,31.00
2018-09-20T12:32:40.568Z,31.20
2018-09-20T12:35:09.006Z,31.40
2018-09-20T12:37:38.787Z,31.40
2018-09-20T12:40:08.657Z,31.50
2018-09-20T12:42:37.249Z,31.50
2018-09-20T12:45:06.061Z,31.70
2018-09-20T12:47:34.631Z,31.90
2018-09-20T12:50:03.280Z,32.00
2018-09-20T12:52:31.924Z,32.20
2018-09-20T12:55:00.477Z,32.30
2018-09-20T12:57:28.921Z,32.40
2018-09-20T12:59:57.430Z,32.40
2018-09-20T13:02:25.913Z,32.50
2018-09-20T13:04:55.409Z,32.70
2018-09-20T13:07:24.930Z,32.80
2018-09-20T13:09:53.371Z,32.90
2018-09-20T13:12:21.874Z,33.00
2018-09-20T13:14:50.391Z,33.20
2018-09-20T13:17:18.981Z,33.40
2018-09-20T13:19:47.537Z,33.40
2018-09-20T13:22:16.181Z,33.60
2018-09-20T13:24:44.666Z,33.80
2018-09-20T13:27:13.149Z,33.90
2018-09-20T13:29:41.670Z,34.00
2018-09-20T13:32:10.118Z,34.10
2018-09-20T13:34:38.626Z,34.20
2018-09-20T13:37:07.224Z,34.40
2018-09-20T13:39:35.797Z,34.60
2018-09-20T13:42:04.350Z,34.70
2018-09-20T13:44:32.871Z,34.90
2018-09-20T13:47:01.450Z,35.00
2018-09-20T13:49:29.925Z,35.10
2018-09-20T13:51:58.414Z,35.20
2018-09-20T13:54:26.846Z,35.30
2018-09-20T13:56:55.361Z,35.30
2018-09-20T13:59:23.817Z,35.20
2018-09-20T14:01:52.441Z,35.10
2018-09-20T14:04:22.011Z,35.20
2018-09-20T14:06:50.752Z,35.20
2018-09-20T14:09:20.245Z,35.00
2018-09-20T14:11:48.910Z,34.90
2018-09-20T14:14:17.419Z,35.10
2018-09-20T14:16:45.989Z,35.50
2018-09-20T14:19:14.441Z,36.20
2018-09-20T14:21:42.955Z,36.90
2018-09-20T14:24:11.382Z,37.60
2018-09-20T14:26:39.925Z,38.30
2018-09-20T14:29:08.466Z,38.90
2018-09-20T14:31:37.010Z,39.60
2018-09-20T14:34:07.301Z,40.40
2018-09-20T14:36:35.762Z,41.10
2018-09-20T14:39:06.233Z,41.50
2018-09-20T14:41:35.704Z,41.90
2018-09-20T14:44:04.211Z,42.20
2018-09-20T14:46:32.757Z,42.60
2018-09-20T14:49:01.274Z,42.80
2018-09-20T14:51:29.801Z,43.10
2018-09-20T14:53:58.329Z,43.10
2018-09-20T14:56:26.924Z,43.10
2018-09-20T14:58:55.466Z,43.20
2018-09-20T15:01:23.934Z,43.30
2018-09-20T15:03:52.483Z,43.40
2018-09-20T15:06:21.002Z,43.20
2018-09-20T15:08:49.489Z,43.00
2018-09-20T15:11:17.993Z,43.00
2018-09-20T15:13:46.734Z,42.80
2018-09-20T15:16:15.228Z,42.60
2018-09-20T15:18:43.758Z,42.40
2018-09-20T15:21:13.254Z,42.10
2018-09-20T15:23:42.774Z,41.80
2018-09-20T15:26:12.242Z,41.20
2018-09-20T15:28:40.756Z,40.50
2018-09-20T15:31:09.240Z,39.50
2018-09-20T15:33:37.697Z,38.40
2018-09-20T15:36:06.162Z,37.30
2018-09-20T15:38:34.653Z,36.50
2018-09-20T15:41:03.379Z,35.70
2018-09-20T15:43:31.912Z,34.80
2018-09-20T15:46:00.439Z,34.00
2018-09-20T15:48:28.870Z,33.30
2018-09-20T15:50:57.380Z,32.60
2018-09-20T15:53:25.872Z,32.10
2018-09-20T15:55:54.365Z,31.50
2018-09-20T15:58:23.013Z,31.10
2018-09-20T16:00:51.534Z,30.60
2018-09-20T16:03:20.142Z,30.30
2018-09-20T16:05:48.902Z,29.90
2018-09-20T16:08:17.348Z,29.60
2018-09-20T16:10:45.875Z,29.30
2018-09-20T16:13:14.622Z,29.00
2018-09-20T16:15:43.126Z,28.70
2018-09-20T16:18:11.573Z,28.50
2018-09-20T16:20:40.116Z,28.30
2018-09-20T16:23:08.632Z,28.10
2018-09-20T16:25:37.158Z,28.00
2018-09-20T16:28:22.134Z,27.70
2018-09-20T16:33:22.654Z,27.60
2018-09-20T16:36:00.709Z,27.40
2018-09-20T16:38:47.421Z,27.10
2018-09-20T16:41:21.789Z,26.90
2018-09-20T16:43:50.375Z,26.70
2018-09-20T16:46:18.846Z,26.60
2018-09-20T16:48:47.357Z,26.50
2018-09-20T16:51:15.961Z,26.40
2018-09-20T16:53:45.410Z,26.30
2018-09-20T16:56:14.957Z,26.10
2018-09-20T16:58:49.180Z,26.00
2018-09-20T17:01:18.649Z,25.90
2018-09-20T17:03:47.529Z,25.90
2018-09-20T17:06:17.893Z,25.80
2018-09-20T17:08:47.233Z,25.70
2018-09-20T17:11:15.773Z,25.60
2018-09-20T17:13:44.241Z,25.50
2018-09-20T17:16:13.229Z,25.40
2018-09-20T17:18:42.203Z,25.30
2018-09-20T17:21:10.808Z,25.30
2018-09-20T17:23:39.507Z,25.20
2018-09-20T17:26:07.981Z,25.10
2018-09-20T17:28:36.687Z,25.00
2018-09-20T17:31:05.573Z,24.90
2018-09-20T17:33:34.177Z,24.80
2018-09-20T17:36:03.845Z,24.70
2018-09-20T17:38:33.601Z,24.60
2018-09-20T17:41:09.569Z,24.50
2018-09-20T17:43:46.870Z,24.50
2018-09-20T17:46:15.408Z,24.40
2018-09-20T17:48:43.982Z,24.30
2018-09-20T17:51:13.968Z,24.30
2018-09-20T17:53:43.685Z,24.10
2018-09-20T17:56:13.117Z,24.00
2018-09-20T17:58:42.593Z,23.90
2018-09-20T18:01:11.205Z,23.80
2018-09-20T18:03:40.729Z,23.70
2018-09-20T18:06:09.305Z,23.60
2018-09-20T18:08:37.866Z,23.60
2018-09-20T18:11:06.855Z,23.50
2018-09-20T18:13:35.370Z,23.40
2018-09-20T18:16:03.917Z,23.30
2018-09-20T18:18:32.544Z,23.30
2018-09-20T18:21:01.178Z,23.30
2018-09-20T18:23:29.730Z,23.20
2018-09-20T18:25:58.275Z,23.10
2018-09-20T18:28:26.817Z,23.10
2018-09-20T18:30:55.353Z,23.00
2018-09-20T18:33:23.882Z,23.00
2018-09-20T18:35:52.418Z,22.90
2018-09-20T18:38:21.032Z,22.90
2018-09-20T18:40:49.593Z,22.80
2018-09-20T18:43:18.164Z,22.80
2018-09-20T18:45:46.721Z,22.70
2018-09-20T18:48:15.237Z,22.70
2018-09-20T18:50:43.790Z,22.70
2018-09-20T18:53:12.275Z,22.60
2018-09-20T18:55:40.765Z,22.60
2018-09-20T18:58:09.249Z,22.50
2018-09-20T19:00:37.850Z,22.60
2018-09-20T19:03:06.405Z,22.60
2018-09-20T19:05:34.870Z,22.60
2018-09-20T19:08:03.393Z,22.60
2018-09-20T19:10:31.965Z,22.60
2018-09-20T19:13:00.645Z,22.50
2018-09-20T19:16:58.560Z,22.50
2018-09-20T19:19:27.061Z,22.50
2018-09-20T19:21:55.554Z,22.50
2018-09-20T19:24:24.093Z,22.40
2018-09-20T19:26:52.630Z,22.40
2018-09-20T19:29:22.233Z,22.30
2018-09-20T19:31:50.873Z,22.30
2018-09-20T19:34:19.410Z,22.30
2018-09-20T19:36:47.957Z,22.30
2018-09-20T19:39:16.574Z,22.30
2018-09-20T19:41:45.109Z,22.30
2018-09-20T19:44:13.687Z,22.30
2018-09-20T19:46:42.293Z,22.30
2018-09-20T19:49:10.894Z,22.30
2018-09-20T19:51:39.397Z,22.30
2018-09-20T19:54:07.946Z,22.30
2018-09-20T19:56:36.618Z,22.30
2018-09-20T19:59:05.669Z,22.30
2018-09-20T20:01:34.134Z,22.30
2018-09-20T20:04:02.614Z,22.30
2018-09-20T20:06:31.229Z,22.30
2018-09-20T20:08:59.810Z,22.30
2018-09-20T20:11:28.270Z,22.30
2018-09-20T20:13:56.873Z,22.30
2018-09-20T20:16:25.317Z,22.30
2018-09-20T20:18:53.830Z,22.30
2018-09-20T20:21:22.281Z,22.30
2018-09-20T20:23:50.805Z,22.20
2018-09-20T20:26:19.349Z,22.20
2018-09-20T20:28:47.862Z,22.20
2018-09-20T20:31:16.427Z,22.20
2018-09-20T20:33:45.045Z,22.20
2018-09-20T20:36:13.577Z,22.20
2018-09-20T20:38:42.130Z,22.20
2018-09-20T20:41:11.657Z,22.20
2018-09-20T20:43:40.161Z,22.30
2018-09-20T20:46:08.681Z,22.20
2018-09-20T20:48:37.228Z,22.20
2018-09-20T20:51:05.743Z,22.20
2018-09-20T20:53:34.277Z,22.20
2018-09-20T20:56:02.802Z,22.10
2018-09-20T20:58:31.480Z,22.00
2018-09-20T21:00:59.969Z,22.00
2018-09-20T21:03:28.554Z,21.90
2018-09-20T21:05:57.133Z,21.80
2018-09-20T21:08:25.565Z,21.80
2018-09-20T21:10:54.109Z,21.70
2018-09-20T21:13:22.698Z,21.70
2018-09-20T21:15:51.229Z,21.60
2018-09-20T21:18:19.741Z,21.50
2018-09-20T21:20:48.196Z,21.40
2018-09-20T21:23:16.705Z,21.30
2018-09-20T21:25:45.154Z,21.30
2018-09-20T21:28:13.626Z,21.20
2018-09-20T21:30:42.155Z,21.20
2018-09-20T21:33:10.796Z,21.10
2018-09-20T21:35:40.293Z,21.10
2018-09-20T21:38:08.822Z,21.10
2018-09-20T21:40:37.289Z,21.00
2018-09-20T21:43:05.818Z,20.90
2018-09-20T21:45:34.397Z,20.90
2018-09-20T21:48:02.990Z,20.90
2018-09-20T21:50:31.534Z,20.80
2018-09-20T21:53:00.989Z,20.80
2018-09-20T21:55:29.659Z,20.80
2018-09-20T21:57:58.269Z,20.70
2018-09-20T22:00:26.898Z,20.70
2018-09-20T22:03:03.424Z,20.70
2018-09-20T22:05:33.450Z,20.70
2018-09-20T22:08:01.965Z,20.70
2018-09-20T22:10:30.753Z,20.70
2018-09-20T22:12:59.289Z,20.60
2018-09-20T22:15:28.869Z,20.60
2018-09-20T22:17:57.933Z,20.50
2018-09-20T22:20:28.838Z,20.50
2018-09-20T22:22:57.340Z,20.40
2018-09-20T22:25:25.855Z,20.40
2018-09-20T22:27:54.446Z,20.30
2018-09-20T22:30:23.990Z,20.30
2018-09-20T22:32:53.554Z,20.20
2018-09-20T22:35:22.077Z,20.20
2018-09-20T22:37:50.630Z,20.10
2018-09-20T22:40:20.126Z,20.00
2018-09-20T22:42:48.645Z,20.00
2018-09-20T22:45:17.235Z,19.90
2018-09-20T22:47:45.734Z,19.90
2018-09-20T22:50:15.254Z,19.90
2018-09-20T22:52:43.705Z,19.80
2018-09-20T22:55:12.234Z,19.80
2018-09-20T22:57:40.765Z,19.80
2018-09-20T23:00:09.318Z,19.70
2018-09-20T23:02:37.865Z,19.70
2018-09-20T23:05:06.525Z,19.60
2018-09-20T23:07:35.057Z,19.60
2018-09-20T23:10:03.627Z,19.60
2018-09-20T23:12:32.097Z,19.50
2018-09-20T23:15:00.649Z,19.50
2018-09-20T23:17:30.201Z,19.40
2018-09-20T23:19:58.737Z,19.40
2018-09-20T23:22:27.264Z,19.40
2018-09-20T23:24:55.844Z,19.40
2018-09-20T23:27:24.417Z,19.40
2018-09-20T23:29:52.927Z,19.40
2018-09-20T23:32:22.386Z,19.40
2018-09-20T23:34:50.878Z,19.40
2018-09-20T23:37:19.329Z,19.40
2018-09-20T23:39:47.863Z,19.40
2018-09-20T23:42:17.325Z,19.40
2018-09-20T23:44:45.825Z,19.40
2018-09-20T23:47:15.306Z,19.40
2018-09-20T23:49:43.837Z,19.40
2018-09-20T23:52:12.309Z,19.40
2018-09-20T23:54:40.807Z,19.30
2018-09-20T23:57:09.385Z,19.30
2018-09-20T23:59:37.957Z,19.30
